Utrera, Spain
Current Conditions -  °F | °C
As of 9:00 AM on Thursday 27 Nov 2014 (Local Time) from LEMO Reporting Station
Moderate Rain Moderate Rain  
Wind Chill: 55°   Ceiling: 4500
Heat Index: 55°   Visibility: 1.8mi
Dew Point: 52°   Wind: 6mph
Humidity: 88%   Direction: 180°S
Pressure: 29.59"   Gusts: NA
Location:  37.18°N, 5.78°W
Report Text: LEMO 270800Z 18005KT 3000 RA FEW015 SCT030 BKN045 13/11 Q1002 NOSIG
Loading
Personal Weather Stations






























Interactive Weather Map New forecast layout! Learn more

10-Day Weather Forecast

Advertisements
Track Severe Weather on mobile